Time;durP1;ratioP1;P1;durP2;ratioP2;P2;SDS_P1;SDS_P2;PMS_P1;PMS_P2;Temp;Humidity;BMP_temperature;BMP_pressure;BME280_temperature;BME280_humidity;BME280_pressure;Samples;Min_cycle;Max_cycle;Signal;HPM_P1;HPM_P2
2022/10/13 00:01:17;;;;;;;20.50;12.80;;;12.70;99.90;;;15.62;60.19;98136.59;5042197;28;20046;-48
2022/10/13 00:03:46;;;;;;;19.08;13.23;;;12.80;99.90;;;15.56;60.33;98140.81;5042862;28;20046;-47
2022/10/13 00:06:25;;;;;;;21.98;12.43;;;12.70;99.90;;;15.59;60.19;98138.81;5041107;28;20057;-48
2022/10/13 00:08:53;;;;;;;22.15;12.32;;;12.70;99.90;;;15.61;60.14;98140.31;5041937;28;20049;-49
2022/10/13 00:11:28;;;;;;;20.80;11.88;;;12.70;99.90;;;15.62;60.28;98138.44;5044220;28;20041;-49
2022/10/13 00:14:00;;;;;;;20.70;12.85;;;12.70;99.90;;;15.58;60.44;98135.28;5046071;28;20343;-47
2022/10/13 00:16:30;;;;;;;22.17;12.13;;;12.70;99.90;;;15.61;60.49;98131.44;5046106;28;20045;-49
2022/10/13 00:18:58;;;;;;;22.90;13.45;;;12.80;99.90;;;15.55;60.57;98139.19;5045975;28;20052;-48
2022/10/13 00:21:27;;;;;;;23.17;13.88;;;12.70;99.90;;;15.54;60.75;98137.50;5046065;28;20037;-49
2022/10/13 00:23:55;;;;;;;19.92;11.45;;;12.70;99.90;;;15.61;60.56;98129.56;5045909;28;20045;-47
2022/10/13 00:26:25;;;;;;;19.95;12.88;;;12.70;99.90;;;15.65;60.43;98133.56;5045669;28;20068;-48
2022/10/13 00:28:55;;;;;;;18.92;12.07;;;12.80;99.90;;;15.66;60.34;98135.22;5045795;28;20048;-48
2022/10/13 00:31:30;;;;;;;22.13;13.25;;;12.80;99.90;;;15.62;60.48;98125.84;5044703;28;20060;-51
2022/10/13 00:33:59;;;;;;;24.08;12.63;;;12.80;99.90;;;15.68;60.24;98135.03;5046544;28;20049;-47
2022/10/13 00:36:28;;;;;;;21.83;12.32;;;12.80;99.90;;;15.69;60.14;98131.34;5044108;28;20046;-47
2022/10/13 00:38:57;;;;;;;19.48;11.93;;;12.80;99.90;;;15.70;60.02;98128.47;5046071;28;20056;-47
2022/10/13 00:41:25;;;;;;;19.98;12.65;;;12.80;99.90;;;15.69;60.19;98121.44;5045589;28;20050;-47
2022/10/13 00:44:06;;;;;;;24.10;13.15;;;12.80;99.90;;;15.72;60.14;98136.34;5045659;28;20049;-49
2022/10/13 00:46:36;;;;;;;19.23;11.88;;;12.70;99.90;;;15.71;60.23;98135.50;5045134;28;20049;-48
2022/10/13 00:49:10;;;;;;;21.38;11.90;;;12.80;99.90;;;15.71;60.31;98134.69;5043920;28;20045;-49
2022/10/13 00:51:46;;;;;;;16.02;11.48;;;12.80;99.90;;;15.72;60.31;98129.13;5029400;28;20071;-49
2022/10/13 00:54:19;;;;;;;22.67;12.80;;;12.80;99.90;;;15.73;60.37;98132.69;5044409;28;20046;-48
2022/10/13 00:56:49;;;;;;;27.65;12.00;;;12.90;99.90;;;15.74;60.28;98126.28;5040528;28;20044;-48
2022/10/13 00:59:27;;;;;;;22.30;12.48;;;12.90;99.90;;;15.74;60.14;98127.13;5044407;28;20052;-49
2022/10/13 01:01:58;;;;;;;19.38;12.57;;;12.80;99.90;;;15.73;60.15;98130.00;5044879;28;20048;-52
2022/10/13 01:04:40;;;;;;;18.35;12.32;;;12.80;99.90;;;15.74;60.28;98135.19;5044245;28;20047;-48
2022/10/13 01:07:09;;;;;;;23.02;12.13;;;12.80;99.90;;;15.75;60.23;98133.31;5044818;28;20240;-48
2022/10/13 01:09:37;;;;;;;19.80;11.73;;;12.80;99.90;;;15.77;60.02;98128.59;5043693;28;20287;-48
2022/10/13 01:12:35;;;;;;;20.60;12.43;;;12.90;99.90;;;15.81;59.88;98127.22;5044071;28;20041;-49
2022/10/13 01:15:21;;;;;;;22.48;10.95;;;12.90;99.90;;;15.83;59.94;98127.03;5045148;28;20355;-47
2022/10/13 01:17:55;;;;;;;20.95;11.63;;;12.90;99.90;;;15.83;59.94;98127.88;5043467;28;20045;-48
2022/10/13 01:20:51;;;;;;;18.67;11.80;;;12.90;99.90;;;15.86;60.11;98124.00;5045032;28;20063;-49
2022/10/13 01:23:24;;;;;;;20.90;11.60;;;12.90;99.90;;;15.90;60.06;98126.13;5043955;28;20121;-50
2022/10/13 01:26:17;;;;;;;;;;;12.90;99.90;;;16.00;59.58;98123.19;5045304;28;20181;-50
2022/10/13 01:29:04;;;;;;;19.88;12.13;;;12.90;99.90;;;15.93;59.55;98119.56;5044123;28;19923;-48
2022/10/13 01:31:36;;;;;;;20.30;11.75;;;12.90;99.90;;;15.88;60.12;98120.13;5044944;28;20045;-48
2022/10/13 01:34:29;;;;;;;18.08;11.05;;;12.80;99.90;;;15.84;60.21;98110.75;5044380;28;20051;-48
2022/10/13 01:36:59;;;;;;;19.92;11.32;;;12.80;99.90;;;15.86;60.36;98103.34;5043332;28;20057;-48
2022/10/13 01:39:41;;;;;;;19.55;11.75;;;12.80;99.90;;;15.88;60.27;98112.06;5044890;28;20080;-48
2022/10/13 01:42:23;;;;;;;18.35;11.77;;;12.90;99.90;;;15.88;60.14;98105.88;5043560;28;20328;-48
2022/10/13 01:44:59;;;;;;;18.73;12.75;;;12.90;99.90;;;15.87;60.55;98105.00;5044333;28;20220;-48
2022/10/13 01:47:30;;;;;;;22.70;13.40;;;12.80;99.90;;;15.85;60.17;98098.16;5043786;28;20047;-48
2022/10/13 01:50:00;;;;;;;26.50;13.10;;;12.80;99.90;;;15.85;60.21;98099.00;5043272;28;20276;-47
2022/10/13 01:52:36;;;;;;;19.85;12.85;;;12.80;99.90;;;15.84;60.27;98093.78;5043294;28;20047;-48
2022/10/13 01:55:11;;;;;;;22.70;12.38;;;12.80;99.90;;;15.85;60.21;98098.16;5043266;28;20041;-49
2022/10/13 01:57:42;;;;;;;22.13;13.27;;;12.80;99.90;;;15.85;60.15;98107.03;5044156;28;20263;-48
2022/10/13 02:00:17;;;;;;;19.60;12.85;;;12.70;99.90;;;15.84;60.21;98100.03;5044162;28;20271;-52
2022/10/13 02:03:12;;;;;;;22.30;11.95;;;12.70;99.90;;;15.83;60.10;98113.63;5044541;28;20053;-48
2022/10/13 02:05:48;;;;;;;24.23;14.90;;;12.70;99.90;;;15.82;60.19;98103.88;5044096;28;20335;-48
2022/10/13 02:08:47;;;;;;;25.92;13.20;;;12.70;99.90;;;15.75;60.07;98110.00;5043637;28;20055;-48
2022/10/13 02:11:19;;;;;;;18.85;10.95;;;12.70;99.90;;;15.73;60.14;98101.28;5044001;28;20313;-50
2022/10/13 02:14:11;;;;;;;23.38;13.25;;;12.60;99.90;;;15.70;59.91;98096.28;5042537;28;20052;-49
2022/10/13 02:16:44;;;;;;;24.40;12.27;;;12.60;99.90;;;15.70;60.32;98104.31;5042204;28;20045;-47
2022/10/13 02:19:17;;;;;;;27.90;12.85;;;12.60;99.90;;;15.72;60.22;98099.63;5042783;28;20051;-49
2022/10/13 02:21:45;;;;;;;22.00;12.98;;;12.60;99.90;;;15.75;60.05;98106.47;5042686;28;20063;-48
2022/10/13 02:24:13;;;;;;;24.10;12.20;;;12.70;99.90;;;15.78;60.15;98100.75;5043664;28;20053;-48
2022/10/13 02:26:43;;;;;;;24.33;13.10;;;12.70;99.90;;;15.81;60.18;98102.25;5042311;28;20248;-49
2022/10/13 02:29:14;;;;;;;21.13;11.98;;;12.70;99.90;;;15.85;59.99;98098.16;5042258;28;20042;-48
2022/10/13 02:31:44;;;;;;;23.90;12.95;;;12.80;99.90;;;15.89;60.11;98094.91;5043003;28;20242;-49
2022/10/13 02:34:13;;;;;;;20.02;11.30;;;12.80;99.90;;;15.95;59.85;98098.72;5042310;28;20060;-49
2022/10/13 02:36:44;;;;;;;26.30;11.75;;;12.90;99.90;;;15.99;59.92;98096.50;5041996;28;20048;-47
2022/10/13 02:39:12;;;;;;;24.80;13.15;;;12.90;99.90;;;16.02;59.71;98096.16;5043420;28;20052;-49
2022/10/13 02:41:40;;;;;;;24.65;12.70;;;12.90;99.90;;;16.04;59.71;98092.25;5043811;28;20055;-47
2022/10/13 02:44:08;;;;;;;18.90;12.93;;;13.00;99.90;;;16.07;59.50;98089.22;5043327;28;20045;-48
2022/10/13 02:46:41;;;;;;;22.35;13.63;;;13.00;99.90;;;16.11;59.48;98089.63;5043262;28;20164;-47
2022/10/13 02:49:09;;;;;;;23.02;13.43;;;13.10;99.90;;;16.16;59.39;98087.25;5043014;28;20049;-48
2022/10/13 02:51:37;;;;;;;22.95;12.48;;;13.10;99.90;;;16.17;59.30;98086.25;5043243;28;20041;-47
2022/10/13 02:54:07;;;;;;;22.98;12.80;;;13.10;99.90;;;16.18;59.43;98092.44;5043147;28;20045;-47
2022/10/13 02:56:35;;;;;;;19.20;12.65;;;13.10;99.90;;;16.14;59.63;98089.28;5043922;28;20053;-49
2022/10/13 02:59:03;;;;;;;21.65;11.98;;;13.10;99.90;;;16.14;59.44;98084.72;5042917;28;20045;-47
2022/10/13 03:01:31;;;;;;;21.38;12.70;;;13.10;99.90;;;16.14;59.54;98086.59;5043163;28;20236;-48
2022/10/13 03:03:59;;;;;;;17.25;11.90;;;13.00;99.90;;;16.16;59.45;98089.94;5042831;28;20251;-47
2022/10/13 03:06:27;;;;;;;20.58;12.77;;;13.10;99.90;;;16.19;59.25;98088.72;5042285;28;20247;-49
2022/10/13 03:08:55;;;;;;;22.50;12.15;;;13.10;99.90;;;16.22;59.25;98078.44;5043002;28;20049;-50
2022/10/13 03:11:23;;;;;;;23.63;12.05;;;13.10;99.90;;;16.26;59.30;98084.28;5041830;28;20383;-48
2022/10/13 03:13:51;;;;;;;25.35;13.55;;;13.20;99.90;;;16.27;59.26;98088.63;5043500;28;20239;-50
2022/10/13 03:16:19;;;;;;;20.98;12.88;;;13.20;99.90;;;16.27;59.48;98084.09;5042701;28;20041;-48
2022/10/13 03:18:47;;;;;;;24.70;11.82;;;13.20;99.90;;;16.29;59.34;98084.72;5042644;28;20057;-48
2022/10/13 03:21:15;;;;;;;24.08;11.60;;;13.30;99.90;;;16.31;59.23;98068.44;5042656;28;20060;-48
2022/10/13 03:23:43;;;;;;;21.35;13.00;;;13.30;99.90;;;16.34;59.20;98076.97;5042607;28;20059;-49
2022/10/13 03:26:10;;;;;;;18.98;12.32;;;13.30;99.90;;;16.34;59.02;98059.97;5042424;28;20060;-49
2022/10/13 03:28:38;;;;;;;25.90;12.75;;;13.30;99.90;;;16.31;59.16;98058.50;5042125;28;20047;-47
2022/10/13 03:31:09;;;;;;;21.90;12.75;;;13.20;99.90;;;16.27;59.32;98059.91;5042449;28;20051;-47
2022/10/13 03:33:39;;;;;;;18.92;12.02;;;13.20;99.90;;;16.23;59.14;98061.31;5041425;28;20294;-50
2022/10/13 03:36:07;;;;;;;20.92;12.38;;;13.10;99.90;;;16.21;59.25;98046.41;5042494;28;20046;-48
2022/10/13 03:38:35;;;;;;;24.67;12.90;;;13.10;99.90;;;16.18;59.26;98060.19;5041022;28;20085;-47
2022/10/13 03:41:09;;;;;;;25.20;12.70;;;13.10;99.90;;;16.16;59.44;98057.69;5042266;28;20053;-48
2022/10/13 03:43:39;;;;;;;26.00;14.13;;;13.20;99.90;;;16.16;59.51;98067.63;5042750;28;20049;-48
2022/10/13 03:46:12;;;;;;;22.00;13.80;;;13.10;99.90;;;16.18;59.42;98066.41;5042466;28;20055;-49
2022/10/13 03:48:40;;;;;;;;;;;13.20;99.90;;;16.28;59.16;98066.09;5041155;28;20344;-51
2022/10/13 03:51:15;;;;;;;20.83;12.40;;;13.10;99.90;;;16.22;59.14;98066.88;5042094;28;19924;-49
2022/10/13 03:53:50;;;;;;;26.08;13.82;;;13.10;99.90;;;16.16;59.51;98062.25;5042354;28;20049;-47
2022/10/13 03:56:22;;;;;;;27.30;13.98;;;13.10;99.90;;;16.16;59.64;98062.25;5040259;28;20058;-48
2022/10/13 03:58:59;;;;;;;27.55;15.07;;;13.10;99.90;;;16.12;59.76;98070.66;5040321;28;20060;-52
2022/10/13 04:01:28;;;;;;;23.90;15.77;;;13.00;99.90;;;16.06;59.91;98060.66;5042015;28;20049;-51
2022/10/13 04:03:58;;;;;;;29.70;15.88;;;13.00;99.90;;;16.03;59.96;98057.53;5042346;28;20085;-48
2022/10/13 04:06:27;;;;;;;27.65;15.50;;;13.00;99.90;;;15.97;60.09;98061.78;5041800;28;20050;-47
2022/10/13 04:08:55;;;;;;;28.48;14.13;;;12.90;99.90;;;15.97;59.94;98055.56;5042282;28;20052;-48
2022/10/13 04:11:23;;;;;;;25.65;14.07;;;12.90;99.90;;;15.95;60.09;98050.38;5039508;28;20050;-48
2022/10/13 04:13:58;;;;;;;31.55;15.13;;;12.90;99.90;;;15.94;59.93;98052.25;5042572;28;20049;-48
2022/10/13 04:16:29;;;;;;;32.28;18.52;;;12.90;99.90;;;15.90;60.11;98052.81;5042015;28;20209;-52
2022/10/13 04:19:02;;;;;;;32.40;16.92;;;12.80;99.90;;;15.89;60.08;98054.66;5041943;28;20041;-49
2022/10/13 04:21:33;;;;;;;26.85;14.63;;;12.80;99.90;;;15.87;60.12;98056.69;5041887;28;20060;-48
2022/10/13 04:24:02;;;;;;;26.00;13.73;;;12.90;99.90;;;15.87;59.99;98063.91;5041369;28;20057;-48
2022/10/13 04:26:33;;;;;;;25.67;14.48;;;12.80;99.90;;;15.85;60.21;98071.31;5041513;28;20221;-48
2022/10/13 04:29:09;;;;;;;27.92;15.48;;;12.80;99.90;;;15.86;60.47;98062.25;5042747;28;20481;-47
2022/10/13 04:31:39;;;;;;;21.98;14.85;;;12.90;99.90;;;15.83;60.28;98066.13;5040767;28;20361;-51
2022/10/13 04:34:07;;;;;;;24.80;13.63;;;12.80;99.90;;;15.84;60.19;98067.81;5041866;28;20041;-49
2022/10/13 04:36:35;;;;;;;25.05;13.90;;;12.80;99.90;;;15.87;60.13;98061.22;5041558;28;20051;-49
2022/10/13 04:39:03;;;;;;;24.27;13.52;;;12.90;99.90;;;15.89;60.08;98061.88;5042261;28;20060;-52
2022/10/13 04:41:32;;;;;;;23.45;14.25;;;12.90;99.90;;;15.91;59.94;98057.16;5042112;28;20330;-48
2022/10/13 04:44:01;;;;;;;28.98;15.93;;;12.90;99.90;;;15.88;59.76;98061.06;5041704;28;20051;-48
2022/10/13 04:46:29;;;;;;;25.27;14.35;;;12.90;99.90;;;15.83;59.94;98058.06;5039829;28;20069;-52
2022/10/13 04:48:57;;;;;;;22.52;14.68;;;12.80;99.90;;;15.76;59.94;98054.47;5041176;28;20041;-52
2022/10/13 04:51:32;;;;;;;25.67;14.07;;;12.70;99.90;;;15.75;59.89;98050.94;5041919;28;20060;-50
2022/10/13 04:54:01;;;;;;;27.48;13.52;;;12.70;99.90;;;15.71;59.89;98046.09;5041714;28;20045;-49
2022/10/13 04:56:30;;;;;;;23.23;15.20;;;12.70;99.90;;;15.69;59.90;98038.22;5041321;28;20386;-49
2022/10/13 04:59:04;;;;;;;24.67;14.35;;;12.60;99.90;;;15.67;59.98;98040.28;5045295;28;20053;-48
2022/10/13 05:01:34;;;;;;;24.13;13.32;;;12.60;99.90;;;15.65;59.94;98039.63;5045770;28;20049;-48
2022/10/13 05:04:06;;;;;;;24.48;13.48;;;12.60;99.90;;;15.64;59.88;98048.66;5045798;28;20049;-48
2022/10/13 05:06:39;;;;;;;23.35;13.45;;;12.60;99.90;;;15.59;60.10;98045.72;5045298;28;20059;-47
2022/10/13 05:09:27;;;;;;;24.95;15.30;;;12.50;99.90;;;15.56;60.14;98043.41;5044120;28;20235;-49
2022/10/13 05:11:56;;;;;;;24.98;13.27;;;12.50;99.90;;;15.50;60.31;98054.88;5043751;28;20242;-52
2022/10/13 05:14:24;;;;;;;26.13;14.10;;;12.40;99.90;;;15.48;60.19;98052.38;5045126;28;20048;-51
2022/10/13 05:16:53;;;;;;;21.65;12.77;;;12.40;99.90;;;15.46;60.51;98053.56;5044628;28;20052;-50
2022/10/13 05:19:21;;;;;;;24.85;13.13;;;12.40;99.90;;;15.49;60.46;98053.19;5044925;28;20053;-53
2022/10/13 05:21:49;;;;;;;24.98;14.38;;;12.50;99.90;;;15.53;60.39;98060.72;5043629;28;20060;-54
2022/10/13 05:24:16;;;;;;;24.92;12.77;;;12.50;99.90;;;15.59;60.28;98052.94;5045001;28;20260;-49
2022/10/13 05:26:49;;;;;;;29.33;13.30;;;12.50;99.90;;;15.59;60.17;98055.63;5044455;28;20352;-51
2022/10/13 05:29:17;;;;;;;22.90;13.02;;;12.50;99.90;;;15.58;60.14;98051.28;5044872;28;20063;-49
2022/10/13 05:31:45;;;;;;;23.38;12.85;;;12.50;99.90;;;15.61;60.19;98049.06;5045105;28;20056;-51
2022/10/13 05:34:12;;;;;;;20.75;13.25;;;12.50;99.90;;;15.59;60.34;98053.78;5044532;28;20049;-50
2022/10/13 05:36:40;;;;;;;24.15;13.88;;;12.50;99.90;;;15.58;60.38;98054.78;5044223;28;20060;-53
2022/10/13 05:39:09;;;;;;;24.25;14.13;;;12.50;99.90;;;15.56;60.44;98068.38;5044605;28;20051;-49
2022/10/13 05:41:38;;;;;;;23.58;13.35;;;12.50;99.90;;;15.56;60.44;98063.00;5044502;28;20052;-50
2022/10/13 05:44:13;;;;;;;22.23;13.10;;;12.50;99.90;;;15.61;60.26;98067.03;5044413;28;20049;-51
2022/10/13 05:46:53;;;;;;;26.13;14.40;;;12.60;99.90;;;15.66;60.21;98060.06;5044025;28;20041;-48
2022/10/13 05:49:21;;;;;;;24.73;14.27;;;12.60;99.90;;;15.66;60.11;98060.06;5044351;28;20063;-49
2022/10/13 05:51:57;;;;;;;22.50;13.23;;;12.60;99.90;;;15.65;60.22;98049.53;5044111;28;20264;-49
2022/10/13 05:54:37;;;;;;;27.08;14.13;;;12.60;99.90;;;15.63;60.25;98046.19;5044477;28;20286;-48
2022/10/13 05:57:40;;;;;;;23.55;14.10;;;12.60;99.90;;;15.59;60.43;98045.72;5042618;28;20057;-51
2022/10/13 06:00:17;;;;;;;23.83;14.52;;;12.50;99.90;;;15.58;60.33;98040.53;5040796;28;20053;-49
2022/10/13 06:03:05;;;;;;;25.95;14.75;;;12.50;99.90;;;15.54;60.39;98046.25;5043191;28;20056;-48
2022/10/13 06:05:33;;;;;;;21.80;13.40;;;12.50;99.90;;;15.57;60.50;98039.72;5043986;28;20053;-49
2022/10/13 06:08:01;;;;;;;23.52;13.23;;;12.50;99.90;;;15.59;60.35;98026.94;5042635;28;20049;-52
2022/10/13 06:10:30;;;;;;;22.02;13.07;;;12.60;99.90;;;15.63;60.36;98038.97;5043876;28;20056;-50
2022/10/13 06:12:57;;;;;;;24.10;14.63;;;12.60;99.90;;;15.62;60.31;98042.66;5043201;28;20364;-49
2022/10/13 06:15:25;;;;;;;21.98;13.38;;;12.60;99.90;;;15.61;60.30;98041.00;5043948;28;20256;-51
2022/10/13 06:17:56;;;;;;;22.45;13.40;;;12.60;99.90;;;15.61;60.39;98045.56;5043630;28;20053;-52
2022/10/13 06:20:25;;;;;;;24.08;15.25;;;12.60;99.90;;;15.61;60.30;98045.56;5043709;28;20251;-50
2022/10/13 06:22:54;;;;;;;24.13;13.90;;;12.50;99.90;;;15.62;60.50;98042.66;5043770;28;20075;-51
2022/10/13 06:25:22;;;;;;;24.20;14.15;;;12.60;99.90;;;15.66;60.48;98037.75;5042906;28;20251;-51
2022/10/13 06:27:50;;;;;;;24.17;14.15;;;12.60;99.90;;;15.69;60.39;98037.41;5043072;28;20045;-50
2022/10/13 06:30:18;;;;;;;21.85;12.65;;;12.70;99.90;;;15.74;60.10;98037.69;5043426;28;20041;-49
2022/10/13 06:32:46;;;;;;;24.75;13.60;;;12.70;99.90;;;15.73;60.26;98039.56;5043287;28;20049;-51
2022/10/13 06:35:14;;;;;;;25.35;13.63;;;12.70;99.90;;;15.75;60.27;98042.06;5043511;28;20055;-49
2022/10/13 06:37:42;;;;;;;24.23;14.75;;;12.70;99.90;;;15.75;60.26;98034.00;5043036;28;20045;-50
2022/10/13 06:40:11;;;;;;;23.20;14.15;;;12.70;99.90;;;15.75;60.09;98034.00;5043665;28;20057;-51
2022/10/13 06:42:39;;;;;;;24.35;12.90;;;12.70;99.90;;;15.74;60.15;98037.69;5043253;28;20344;-51
2022/10/13 06:45:09;;;;;;;21.55;12.70;;;12.70;99.90;;;15.73;60.36;98036.88;5042193;28;20053;-53
2022/10/13 06:47:40;;;;;;;23.75;12.65;;;12.70;99.90;;;15.71;60.31;98030.81;5042932;28;20042;-50
2022/10/13 06:50:08;;;;;;;19.85;12.18;;;12.70;99.90;;;15.72;60.41;98021.78;5042973;28;20351;-50
2022/10/13 06:52:37;;;;;;;21.90;13.43;;;12.70;99.90;;;15.73;60.41;98019.94;5043452;28;20050;-53
2022/10/13 06:55:05;;;;;;;25.75;13.18;;;12.70;99.90;;;15.74;60.54;98018.91;5043500;28;20055;-52
2022/10/13 06:57:34;;;;;;;19.85;13.00;;;12.70;99.90;;;15.74;60.49;98016.22;5039931;28;20055;-52
2022/10/13 07:00:06;;;;;;;18.58;12.45;;;12.70;99.90;;;15.74;60.78;98016.22;5043646;28;20059;-53
2022/10/13 07:02:35;;;;;;;20.00;12.40;;;12.70;99.90;;;15.76;60.61;98019.59;5043845;28;20053;-51
2022/10/13 07:05:03;;;;;;;22.55;13.52;;;12.70;99.90;;;15.80;60.61;98020.03;5042976;28;20369;-51
2022/10/13 07:07:31;;;;;;;20.00;13.70;;;12.80;99.90;;;15.81;60.46;98022.53;5042475;28;20056;-53
2022/10/13 07:09:59;;;;;;;21.23;12.90;;;12.80;99.90;;;15.84;60.54;98022.16;5042902;28;20063;-54
2022/10/13 07:12:26;;;;;;;19.35;12.68;;;12.80;99.90;;;15.83;60.67;98030.41;5042587;28;20243;-52
2022/10/13 07:14:54;;;;;;;22.60;11.68;;;12.80;99.90;;;15.82;60.59;98031.41;5041760;28;20060;-50
2022/10/13 07:17:22;;;;;;;22.55;11.73;;;12.80;99.90;;;15.83;60.49;98036.59;5043010;28;20300;-53
2022/10/13 07:19:50;;;;;;;18.25;12.20;;;12.80;99.90;;;15.80;60.86;98033.44;5042171;28;20056;-49
2022/10/13 07:22:25;;;;;;;18.05;12.38;;;12.80;99.90;;;15.83;60.71;98038.47;5042738;28;20041;-50
2022/10/13 07:24:53;;;;;;;18.77;11.18;;;12.80;99.90;;;15.86;60.71;98041.59;5042561;28;20236;-53
2022/10/13 07:27:22;;;;;;;18.90;11.23;;;12.90;99.90;;;15.92;60.66;98040.88;5042128;28;20048;-51
2022/10/13 07:29:51;;;;;;;18.23;12.52;;;12.90;99.90;;;15.91;60.70;98039.19;5042295;28;20049;-51
2022/10/13 07:32:18;;;;;;;19.85;11.95;;;13.00;99.90;;;15.95;60.67;98031.59;5043073;28;20060;-50
2022/10/13 07:34:46;;;;;;;21.00;13.15;;;13.00;99.90;;;15.92;60.77;98037.34;5042618;28;20051;-52
2022/10/13 07:37:15;;;;;;;19.05;12.70;;;13.00;99.90;;;15.96;60.63;98035.13;5041827;28;20055;-53
2022/10/13 07:39:43;;;;;;;19.08;13.20;;;13.00;99.90;;;15.98;60.78;98039.28;5042452;28;20052;-49
2022/10/13 07:42:11;;;;;;;18.80;11.68;;;13.00;99.90;;;16.02;60.72;98040.59;5042392;28;20271;-52
2022/10/13 07:44:38;;;;;;;17.10;10.93;;;13.10;99.90;;;16.01;60.79;98041.59;5042402;28;20049;-51
2022/10/13 07:47:06;;;;;;;18.98;11.98;;;13.10;99.90;;;16.04;60.83;98037.72;5042209;28;20056;-51
2022/10/13 07:49:34;;;;;;;20.60;11.63;;;13.10;99.90;;;16.05;60.74;98032.16;5042383;28;20049;-54
2022/10/13 07:52:03;;;;;;;17.42;11.60;;;13.10;99.90;;;16.14;60.69;98030.19;5042635;28;20052;-49
2022/10/13 07:54:31;;;;;;;19.48;12.05;;;13.30;99.90;;;16.18;60.61;98028.78;5042302;28;20075;-51
2022/10/13 07:56:59;;;;;;;20.05;11.82;;;13.30;99.90;;;16.22;60.46;98026.56;5041814;28;20047;-52
2022/10/13 07:59:27;;;;;;;15.52;10.32;;;13.30;99.90;;;16.26;60.49;98027.84;5041890;28;20049;-49
2022/10/13 08:01:55;;;;;;;20.48;10.93;;;13.30;99.90;;;16.31;60.44;98006.66;5042032;28;20051;-49
2022/10/13 08:04:24;;;;;;;18.33;11.00;;;13.40;99.90;;;16.39;60.36;98003.84;5042285;28;20348;-51
2022/10/13 08:06:52;;;;;;;17.02;10.70;;;13.50;99.90;;;16.43;60.33;97999.75;5041719;28;20059;-53
2022/10/13 08:09:20;;;;;;;15.32;10.52;;;13.60;99.90;;;16.51;60.05;97998.78;5041950;28;20045;-53
2022/10/13 08:11:48;;;;;;;15.70;10.57;;;13.70;99.90;;;16.57;60.00;98010.63;5040906;28;20041;-50
2022/10/13 08:14:16;;;;;;;17.60;9.60;;;13.80;99.90;;;16.64;59.99;98006.19;5042901;28;20089;-51
2022/10/13 08:16:44;;;;;;;15.52;10.75;;;13.90;99.90;;;16.71;60.09;98010.59;5041978;28;20209;-50
2022/10/13 08:19:20;;;;;;;;;;;13.90;99.90;;;16.86;59.96;98004.34;5043125;28;20248;-49
2022/10/13 08:21:49;;;;;;;14.85;9.27;;;13.90;99.90;;;16.92;59.66;98007.13;5042011;28;19917;-51
2022/10/13 08:24:27;;;;;;;14.65;9.90;;;14.00;99.90;;;16.99;59.73;98009.84;5042228;28;20057;-52
2022/10/13 08:26:55;;;;;;;14.90;9.73;;;14.20;99.90;;;17.02;59.67;98009.47;5040417;28;20320;-50
2022/10/13 08:29:23;;;;;;;15.32;10.52;;;14.20;99.90;;;17.07;59.37;98008.88;5042386;28;20045;-52
2022/10/13 08:31:52;;;;;;;18.10;10.30;;;14.30;99.90;;;17.08;59.45;98006.00;5042696;28;20047;-50
2022/10/13 08:34:23;;;;;;;15.80;10.98;;;14.30;99.90;;;17.14;59.42;98004.41;5045804;28;20240;-51
2022/10/13 08:36:53;;;;;;;14.52;9.73;;;14.30;99.90;;;17.23;59.17;98005.06;5045408;28;20181;-54
2022/10/13 08:39:23;;;;;;;16.02;9.75;;;14.40;99.90;;;17.31;59.27;98003.09;5045105;28;20060;-54
2022/10/13 08:41:52;;;;;;;15.27;9.73;;;14.50;99.90;;;17.37;59.18;98001.47;5045773;28;20049;-54
2022/10/13 08:44:45;;;;;;;14.27;9.80;;;14.60;99.90;;;17.45;59.21;98000.50;5045636;28;20057;-49
2022/10/13 08:47:55;;;;;;;15.63;9.88;;;14.70;99.90;;;17.45;58.73;97997.81;5044007;28;20071;-51
2022/10/13 08:50:27;;;;;;;16.20;9.60;;;14.80;99.90;;;17.42;58.79;98000.88;5044300;28;20385;-52
2022/10/13 08:53:17;;;;;;;15.00;9.38;;;14.80;99.90;;;17.42;59.09;97999.00;5044760;28;20049;-49
2022/10/13 08:55:54;;;;;;;17.02;10.55;;;14.80;99.90;;;17.53;59.23;97997.66;5044746;28;20459;-50
2022/10/13 08:58:35;;;;;;;12.95;9.45;;;14.90;99.90;;;17.67;58.71;98002.06;5043920;28;20055;-50
2022/10/13 09:01:05;;;;;;;14.75;9.30;;;15.00;99.90;;;17.70;58.76;98006.25;5044347;28;20053;-48
2022/10/13 09:04:15;;;;;;;15.70;8.68;;;15.10;99.90;;;17.75;58.44;98003.78;5045083;28;20075;-50
2022/10/13 09:07:20;;;;;;;16.63;11.07;;;15.10;99.90;;;17.89;58.51;98015.47;5047070;28;20061;-50
2022/10/13 09:09:51;;;;;;;15.80;8.88;;;15.10;99.90;;;17.96;58.10;98008.28;5043865;28;20053;-49
2022/10/13 09:12:23;;;;;;;12.57;8.23;;;15.20;99.90;;;18.00;57.73;98006.84;5044035;28;20037;-50
2022/10/13 09:15:01;;;;;;;15.00;8.55;;;15.20;99.90;;;18.02;57.78;97996.69;5043924;28;20056;-50
2022/10/13 09:17:31;;;;;;;13.23;8.32;;;15.20;99.90;;;18.05;57.51;98007.09;5044042;28;20060;-49
2022/10/13 09:20:18;;;;;;;16.02;9.00;;;15.20;99.90;;;18.13;57.43;98000.69;5044892;28;20069;-52
2022/10/13 09:23:16;;;;;;;18.88;8.82;;;15.30;99.90;;;18.20;57.54;98003.41;5044333;28;20348;-51
2022/10/13 09:25:54;;;;;;;14.40;8.38;;;15.40;99.90;;;18.27;57.25;97997.00;5045242;28;20056;-51
2022/10/13 09:28:24;;;;;;;12.30;8.48;;;15.50;99.90;;;18.33;57.05;98002.63;5044940;28;20064;-53
2022/10/13 09:31:05;;;;;;;13.70;8.25;;;15.50;99.90;;;18.30;56.98;98001.19;5044878;28;20053;-52
2022/10/13 09:33:40;;;;;;;13.50;8.10;;;15.60;99.90;;;18.29;56.65;97999.50;5044968;28;20051;-50
2022/10/13 09:36:14;;;;;;;12.98;8.73;;;15.50;99.90;;;18.34;56.92;98001.59;5044719;28;20041;-51
2022/10/13 09:39:14;;;;;;;15.07;7.97;;;15.50;99.90;;;18.42;57.04;98002.25;5044806;28;20053;-53
2022/10/13 09:41:44;;;;;;;15.07;7.65;;;15.60;99.90;;;18.49;56.79;97992.31;5044621;28;20054;-49
2022/10/13 09:44:29;;;;;;;14.50;8.43;;;15.70;99.90;;;18.55;56.83;97993.34;5044367;28;20055;-53
2022/10/13 09:47:03;;;;;;;14.20;8.25;;;15.70;99.90;;;18.58;56.61;98000.22;5044167;28;20041;-53
2022/10/13 09:49:43;;;;;;;11.25;7.53;;;15.80;99.90;;;18.56;56.53;98000.41;5044062;28;20060;-53
2022/10/13 09:52:20;;;;;;;10.77;8.13;;;15.70;99.90;;;18.55;56.38;97990.66;5044166;28;20047;-49
2022/10/13 09:54:57;;;;;;;11.20;8.38;;;15.70;99.90;;;18.60;56.50;97998.16;5043394;28;20339;-52
2022/10/13 09:57:30;;;;;;;12.82;7.88;;;15.80;99.90;;;18.61;56.14;97986.31;5043909;28;20344;-51
2022/10/13 10:00:21;;;;;;;13.07;8.90;;;15.80;99.90;;;18.64;56.46;97994.81;5042623;28;20049;-49
2022/10/13 10:03:07;;;;;;;11.90;7.45;;;15.80;99.90;;;18.68;56.17;97995.25;5044303;28;20240;-51
2022/10/13 10:05:54;;;;;;;14.88;7.78;;;15.80;99.90;;;18.68;56.40;97997.94;5044360;28;20060;-51
2022/10/13 10:09:02;;;;;;;12.85;7.95;;;15.80;99.90;;;18.74;56.13;97996.31;5044301;28;20056;-52
2022/10/13 10:11:44;;;;;;;12.05;7.90;;;15.90;99.90;;;18.80;56.48;98003.59;5042896;28;20247;-50
2022/10/13 10:14:30;;;;;;;12.00;7.60;;;15.90;99.90;;;18.80;56.11;97996.34;5042786;28;20343;-49
2022/10/13 10:17:40;;;;;;;13.63;7.38;;;15.90;99.90;;;18.84;56.31;97994.06;5043884;28;20054;-49
2022/10/13 10:20:49;;;;;;;12.90;7.15;;;15.90;99.90;;;18.86;56.02;97998.22;5042915;28;20037;-51
2022/10/13 10:23:34;;;;;;;11.32;7.60;;;16.00;99.90;;;18.89;55.83;97991.59;5043781;28;20049;-54
2022/10/13 10:26:16;;;;;;;17.15;8.43;;;16.00;99.90;;;18.92;55.83;97991.19;5044142;28;20053;-54
2022/10/13 10:29:19;;;;;;;12.63;7.93;;;16.00;99.90;;;18.97;55.85;97994.06;5043613;28;20369;-51
2022/10/13 10:32:27;;;;;;;14.73;7.43;;;16.10;99.90;;;18.99;55.50;97993.88;5042777;28;20042;-50
2022/10/13 10:35:03;;;;;;;12.63;7.50;;;16.10;99.90;;;19.01;55.21;97987.22;5044569;28;20049;-50